createdAt,value
2023-02-14T00:01:13.203Z,99.90
2023-02-14T00:03:40.170Z,99.90
2023-02-14T00:06:13.772Z,99.90
2023-02-14T00:08:44.712Z,99.90
2023-02-14T00:11:13.510Z,99.90
2023-02-14T00:14:00.471Z,99.90
2023-02-14T00:16:27.477Z,99.90
2023-02-14T00:19:03.222Z,99.90
2023-02-14T00:21:33.024Z,99.90
2023-02-14T00:23:59.887Z,99.90
2023-02-14T00:26:26.753Z,99.90
2023-02-14T00:28:53.714Z,99.90
2023-02-14T00:31:20.771Z,99.90
2023-02-14T00:33:48.498Z,99.90
2023-02-14T00:36:17.762Z,99.90
2023-02-14T00:38:44.770Z,99.90
2023-02-14T00:41:19.084Z,99.90
2023-02-14T00:43:52.618Z,99.90
2023-02-14T00:46:22.814Z,99.90
2023-02-14T00:48:50.683Z,99.90
2023-02-14T00:51:19.312Z,99.90
2023-02-14T00:53:48.346Z,99.90
2023-02-14T00:56:16.162Z,99.90
2023-02-14T00:58:43.568Z,99.90
2023-02-14T01:01:12.213Z,99.90
2023-02-14T01:03:39.591Z,99.90
2023-02-14T01:06:07.304Z,99.90
2023-02-14T01:08:34.964Z,99.90
2023-02-14T01:11:20.632Z,99.90
2023-02-14T01:13:50.306Z,99.90
2023-02-14T01:16:22.363Z,99.90
2023-02-14T01:18:49.859Z,99.90
2023-02-14T01:21:22.835Z,99.90
2023-02-14T01:23:53.552Z,99.90
2023-02-14T01:26:22.639Z,99.90
2023-02-14T01:28:49.826Z,99.90
2023-02-14T01:31:21.537Z,99.90
2023-02-14T01:33:50.654Z,99.90
2023-02-14T01:36:28.250Z,99.90
2023-02-14T01:39:04.532Z,99.90
2023-02-14T01:41:34.832Z,99.90
2023-02-14T01:44:16.726Z,99.90
2023-02-14T01:46:46.086Z,99.90
2023-02-14T01:49:25.589Z,99.90
2023-02-14T01:52:28.702Z,99.90
2023-02-14T01:55:03.348Z,99.90
2023-02-14T01:58:01.845Z,99.90
2023-02-14T02:00:47.771Z,99.90
2023-02-14T02:03:19.166Z,99.90
2023-02-14T02:05:53.523Z,99.90
2023-02-14T02:08:20.858Z,99.90
2023-02-14T02:10:47.861Z,99.90
2023-02-14T02:13:21.399Z,99.90
2023-02-14T02:16:05.165Z,99.90
2023-02-14T02:19:26.831Z,99.90
2023-02-14T02:22:35.083Z,99.90
2023-02-14T02:25:16.919Z,99.90
2023-02-14T02:28:17.890Z,99.90
2023-02-14T02:31:42.939Z,99.90
2023-02-14T02:34:34.636Z,99.90
2023-02-14T02:37:29.956Z,99.90
2023-02-14T02:40:48.681Z,99.90
2023-02-14T02:44:03.792Z,99.90
2023-02-14T02:46:59.197Z,99.90
2023-02-14T02:50:24.809Z,99.90
2023-02-14T02:53:11.839Z,99.90
2023-02-14T02:56:10.764Z,99.90
2023-02-14T02:58:50.098Z,99.90
2023-02-14T03:01:23.514Z,99.90
2023-02-14T03:04:16.973Z,99.90
2023-02-14T03:06:46.064Z,99.90
2023-02-14T03:09:20.250Z,99.90
2023-02-14T03:12:11.374Z,99.90
2023-02-14T03:14:51.844Z,99.90
2023-02-14T03:17:56.302Z,99.90
2023-02-14T03:20:38.630Z,99.90
2023-02-14T03:23:48.697Z,99.90
2023-02-14T03:26:27.261Z,99.90
2023-02-14T03:29:06.016Z,99.90
2023-02-14T03:31:49.952Z,99.90
2023-02-14T03:34:28.348Z,99.90
2023-02-14T03:37:07.065Z,99.90
2023-02-14T03:40:15.649Z,99.90
2023-02-14T03:43:10.286Z,99.90
2023-02-14T03:46:06.306Z,99.90
2023-02-14T03:48:36.710Z,99.90
2023-02-14T03:51:08.562Z,99.90
2023-02-14T03:53:40.111Z,99.90
2023-02-14T03:56:23.636Z,99.90
2023-02-14T03:58:55.900Z,99.90
2023-02-14T04:01:47.094Z,99.90
2023-02-14T04:04:22.300Z,99.90
2023-02-14T04:06:49.224Z,99.90
2023-02-14T04:09:16.171Z,99.90
2023-02-14T04:11:43.363Z,99.90
2023-02-14T04:14:10.345Z,99.90
2023-02-14T04:16:57.224Z,99.90
2023-02-14T04:19:24.194Z,99.90
2023-02-14T04:21:52.905Z,99.90
2023-02-14T04:24:20.392Z,99.90
2023-02-14T04:27:12.174Z,99.90
2023-02-14T04:29:49.855Z,99.90
2023-02-14T04:32:22.499Z,99.90
2023-02-14T04:34:49.947Z,99.90
2023-02-14T04:37:19.656Z,99.90
2023-02-14T04:39:47.088Z,99.90
2023-02-14T04:42:14.313Z,99.90
2023-02-14T04:44:41.591Z,99.90
2023-02-14T04:47:09.377Z,99.90
2023-02-14T04:49:36.787Z,99.90
2023-02-14T04:52:04.850Z,99.90
2023-02-14T04:54:32.028Z,99.90
2023-02-14T04:56:59.030Z,99.90
2023-02-14T04:59:26.349Z,99.90
2023-02-14T05:01:53.675Z,99.90
2023-02-14T05:04:20.920Z,99.90
2023-02-14T05:06:47.787Z,99.90
2023-02-14T05:09:14.651Z,99.90
2023-02-14T05:11:41.725Z,99.90
2023-02-14T05:14:08.937Z,99.90
2023-02-14T05:16:35.869Z,99.90
2023-02-14T05:19:02.780Z,99.90
2023-02-14T05:21:33.025Z,99.90
2023-02-14T05:24:01.347Z,99.90
2023-02-14T05:26:28.727Z,99.90
2023-02-14T05:28:56.199Z,99.90
2023-02-14T05:31:23.797Z,99.90
2023-02-14T05:33:51.141Z,99.90
2023-02-14T05:36:18.095Z,99.90
2023-02-14T05:38:45.462Z,99.90
2023-02-14T05:41:12.863Z,99.90
2023-02-14T05:43:40.355Z,99.90
2023-02-14T05:46:07.377Z,99.90
2023-02-14T05:48:34.762Z,99.90
2023-02-14T05:51:08.150Z,99.90
2023-02-14T05:53:35.832Z,99.90
2023-02-14T05:56:03.279Z,99.90
2023-02-14T05:58:30.771Z,99.90
2023-02-14T06:00:59.678Z,99.90
2023-02-14T06:03:26.843Z,99.90
2023-02-14T06:05:53.721Z,99.90
2023-02-14T06:08:20.629Z,99.90
2023-02-14T06:10:47.505Z,99.90
2023-02-14T06:13:14.567Z,99.90
2023-02-14T06:15:41.526Z,99.90
2023-02-14T06:18:08.478Z,99.90
2023-02-14T06:20:36.024Z,99.90
2023-02-14T06:23:03.103Z,99.90
2023-02-14T06:25:30.025Z,99.90
2023-02-14T06:27:58.457Z,99.90
2023-02-14T06:30:25.990Z,99.90
2023-02-14T06:32:53.414Z,99.90
2023-02-14T06:35:20.362Z,99.90
2023-02-14T06:37:47.329Z,99.90
2023-02-14T06:40:14.973Z,99.90
2023-02-14T06:42:41.979Z,99.90
2023-02-14T06:45:09.754Z,99.90
2023-02-14T06:47:36.856Z,99.90
2023-02-14T06:50:05.144Z,99.90
2023-02-14T06:52:35.221Z,99.90
2023-02-14T06:55:02.125Z,99.90
2023-02-14T06:57:29.120Z,99.90
2023-02-14T06:59:56.118Z,99.90
2023-02-14T07:02:25.069Z,99.90
2023-02-14T07:04:52.263Z,99.90
2023-02-14T07:07:19.296Z,99.90
2023-02-14T07:09:46.286Z,99.90
2023-02-14T07:12:13.487Z,99.90
2023-02-14T07:14:40.403Z,99.90
2023-02-14T07:17:07.320Z,99.90
2023-02-14T07:19:35.151Z,99.90
2023-02-14T07:22:02.251Z,99.90
2023-02-14T07:24:30.180Z,99.90
2023-02-14T07:26:57.560Z,99.90
2023-02-14T07:29:24.673Z,99.90
2023-02-14T07:31:51.707Z,99.90
2023-02-14T07:34:18.930Z,99.90
2023-02-14T07:36:45.900Z,99.90
2023-02-14T07:39:12.773Z,99.90
2023-02-14T07:41:39.637Z,99.90
2023-02-14T07:44:10.206Z,99.90
2023-02-14T07:46:37.277Z,99.90
2023-02-14T07:49:04.234Z,99.90
2023-02-14T07:51:31.357Z,99.90
2023-02-14T07:53:58.321Z,99.90
2023-02-14T07:56:25.253Z,99.90
2023-02-14T07:58:52.111Z,99.90
2023-02-14T08:01:19.553Z,99.90
2023-02-14T08:03:49.570Z,99.90
2023-02-14T08:06:21.031Z,99.90
2023-02-14T08:08:48.771Z,99.90
2023-02-14T08:11:35.862Z,99.90
2023-02-14T08:14:04.685Z,99.90
2023-02-14T08:16:34.246Z,99.90
2023-02-14T08:19:02.172Z,99.90
2023-02-14T08:21:29.350Z,99.90
2023-02-14T08:23:56.588Z,99.90
2023-02-14T08:26:24.056Z,99.90
2023-02-14T08:28:51.172Z,99.90
2023-02-14T08:31:36.262Z,99.90
2023-02-14T08:34:04.741Z,99.90
2023-02-14T08:36:32.221Z,99.90
2023-02-14T08:38:59.437Z,99.90
2023-02-14T08:41:26.421Z,99.90
2023-02-14T08:43:53.567Z,99.90
2023-02-14T08:46:20.565Z,99.90
2023-02-14T08:48:49.649Z,99.90
2023-02-14T08:51:17.052Z,99.90
2023-02-14T08:53:44.387Z,99.90
2023-02-14T08:56:14.498Z,99.90
2023-02-14T08:58:41.527Z,99.90
2023-02-14T09:01:15.170Z,98.50
2023-02-14T09:03:42.838Z,96.10
2023-02-14T09:06:14.428Z,97.20
2023-02-14T09:08:41.426Z,96.00
2023-02-14T09:11:14.864Z,96.20
2023-02-14T09:13:46.279Z,95.60
2023-02-14T09:16:17.293Z,96.20
2023-02-14T09:18:46.148Z,95.80
2023-02-14T09:21:18.211Z,94.70
2023-02-14T09:23:45.196Z,96.70
2023-02-14T09:26:15.471Z,94.30
2023-02-14T09:28:43.398Z,92.70
2023-02-14T09:31:20.930Z,93.30
2023-02-14T09:33:50.172Z,90.70
2023-02-14T09:36:17.189Z,90.60
2023-02-14T09:38:44.063Z,90.00
2023-02-14T09:41:40.530Z,87.90
2023-02-14T09:44:32.733Z,86.90
2023-02-14T09:47:23.780Z,83.40
2023-02-14T09:49:56.428Z,83.40
2023-02-14T09:52:30.720Z,81.40
2023-02-14T09:55:01.317Z,85.00
2023-02-14T09:58:02.776Z,81.80
2023-02-14T10:00:39.964Z,83.00
2023-02-14T10:03:40.720Z,82.20
2023-02-14T10:06:51.912Z,80.70
2023-02-14T10:09:21.667Z,80.30
2023-02-14T10:11:49.144Z,76.50
2023-02-14T10:14:25.802Z,77.20
2023-02-14T10:17:08.439Z,79.20
2023-02-14T10:19:52.292Z,78.60
2023-02-14T10:22:26.903Z,74.50
2023-02-14T10:25:15.822Z,71.50
2023-02-14T10:27:46.582Z,74.30
2023-02-14T10:30:23.922Z,72.80
2023-02-14T10:33:05.484Z,70.90
2023-02-14T10:35:50.941Z,72.20
2023-02-14T10:38:32.051Z,71.30
2023-02-14T10:41:10.037Z,69.80
2023-02-14T10:48:49.945Z,66.80
2023-02-14T10:51:44.728Z,67.90
2023-02-14T10:54:26.001Z,67.30
2023-02-14T10:57:52.631Z,67.10
2023-02-14T11:04:52.165Z,69.70
2023-02-14T11:07:21.646Z,67.30
2023-02-14T11:09:48.808Z,66.70
2023-02-14T11:12:37.476Z,66.80
2023-02-14T11:19:59.098Z,64.60
2023-02-14T11:22:34.849Z,66.10
2023-02-14T11:29:16.005Z,64.50
2023-02-14T11:31:43.155Z,64.40
2023-02-14T11:34:27.988Z,63.40
2023-02-14T11:36:54.983Z,64.50
2023-02-14T11:39:28.328Z,62.50
2023-02-14T11:42:00.523Z,61.80
2023-02-14T11:44:31.730Z,61.30
2023-02-14T11:47:41.616Z,61.10
2023-02-14T11:53:06.862Z,58.50
2023-02-14T12:01:33.562Z,59.30
2023-02-14T12:08:46.813Z,59.60
2023-02-14T12:15:34.431Z,57.10
2023-02-14T12:18:41.140Z,57.50
2023-02-14T12:21:26.548Z,56.40
2023-02-14T12:24:23.910Z,55.90
2023-02-14T12:27:52.270Z,56.40
2023-02-14T12:30:26.486Z,55.50
2023-02-14T12:32:58.959Z,56.60
2023-02-14T12:35:34.386Z,55.70
2023-02-14T12:38:09.728Z,55.60
2023-02-14T12:41:09.847Z,55.40
2023-02-14T12:43:55.303Z,56.20
2023-02-14T12:46:44.886Z,57.30
2023-02-14T12:49:49.482Z,56.90
2023-02-14T12:53:05.189Z,56.60
2023-02-14T12:56:06.879Z,55.70
2023-02-14T12:59:05.672Z,55.20
2023-02-14T13:02:03.283Z,54.30
2023-02-14T13:04:47.351Z,54.70
2023-02-14T13:07:25.900Z,54.90
2023-02-14T13:10:54.063Z,54.50
2023-02-14T13:14:04.494Z,53.60
2023-02-14T13:16:58.023Z,54.40
2023-02-14T13:19:34.128Z,53.70
2023-02-14T13:22:04.810Z,53.90
2023-02-14T13:24:49.522Z,53.80
2023-02-14T13:27:24.395Z,54.50
2023-02-14T13:29:53.632Z,53.30
2023-02-14T13:32:28.679Z,52.20
2023-02-14T13:34:56.829Z,52.20
2023-02-14T13:37:27.445Z,52.20
2023-02-14T13:39:59.370Z,52.90
2023-02-14T13:42:48.067Z,51.90
2023-02-14T13:45:30.550Z,52.20
2023-02-14T13:48:19.646Z,51.50
2023-02-14T13:51:17.971Z,51.90
2023-02-14T13:53:49.352Z,52.00
2023-02-14T13:56:16.204Z,52.10
2023-02-14T13:58:53.429Z,51.40
2023-02-14T14:01:50.309Z,52.00
2023-02-14T14:04:30.330Z,52.50
2023-02-14T14:07:03.353Z,52.80
2023-02-14T14:09:42.663Z,52.90
2023-02-14T14:12:28.020Z,52.50
2023-02-14T14:15:18.716Z,52.60
2023-02-14T14:18:14.402Z,52.00
2023-02-14T14:20:45.697Z,51.30
2023-02-14T14:23:37.343Z,51.50
2023-02-14T14:26:40.468Z,51.30
2023-02-14T14:29:24.171Z,51.30
2023-02-14T14:31:55.732Z,51.70
2023-02-14T14:34:27.624Z,51.10
2023-02-14T14:37:17.165Z,52.50
2023-02-14T14:39:56.038Z,52.20
2023-02-14T14:42:27.732Z,53.00
2023-02-14T14:45:02.662Z,52.10
2023-02-14T14:47:37.726Z,52.30
2023-02-14T14:50:14.036Z,52.80
2023-02-14T14:52:47.330Z,52.80
2023-02-14T14:55:32.828Z,53.10
2023-02-14T14:58:05.332Z,53.20
2023-02-14T15:00:38.741Z,53.80
2023-02-14T15:03:18.067Z,52.90
2023-02-14T15:05:48.898Z,52.30
2023-02-14T15:08:32.063Z,52.60
2023-02-14T15:11:46.149Z,52.30
2023-02-14T15:14:20.263Z,51.60
2023-02-14T15:16:53.340Z,51.40
2023-02-14T15:19:34.713Z,51.80
2023-02-14T15:22:06.293Z,51.60
2023-02-14T15:24:34.973Z,51.80
2023-02-14T15:27:03.018Z,52.10
2023-02-14T15:29:32.936Z,51.90
2023-02-14T15:32:04.315Z,52.60
2023-02-14T15:34:36.098Z,52.90
2023-02-14T15:37:06.334Z,53.00
2023-02-14T15:39:43.001Z,52.80
2023-02-14T15:42:41.012Z,52.80
2023-02-14T15:45:27.608Z,53.40
2023-02-14T15:48:03.750Z,52.40
2023-02-14T15:51:05.037Z,52.00
2023-02-14T15:53:53.458Z,52.00
2023-02-14T15:56:29.199Z,51.90
2023-02-14T15:59:04.008Z,52.10
2023-02-14T16:01:34.004Z,53.00
2023-02-14T16:04:05.982Z,54.80
2023-02-14T16:06:46.804Z,55.90
2023-02-14T16:09:28.450Z,57.80
2023-02-14T16:11:55.552Z,59.70
2023-02-14T16:14:28.996Z,61.00
2023-02-14T16:17:15.176Z,62.80
2023-02-14T16:19:46.484Z,64.80
2023-02-14T16:22:32.165Z,65.40
2023-02-14T16:25:00.520Z,67.00
2023-02-14T16:27:27.582Z,68.30
2023-02-14T16:29:54.567Z,69.70
2023-02-14T16:32:24.226Z,71.20
2023-02-14T16:34:51.551Z,73.00
2023-02-14T16:37:39.313Z,74.30
2023-02-14T16:40:15.259Z,75.60
2023-02-14T16:42:43.076Z,77.50
2023-02-14T16:45:20.625Z,79.30
2023-02-14T16:47:48.864Z,80.50
2023-02-14T16:50:17.620Z,82.40
2023-02-14T16:52:48.797Z,85.60
2023-02-14T16:55:19.797Z,88.80
2023-02-14T16:57:50.705Z,90.40
2023-02-14T17:00:28.317Z,91.20
2023-02-14T17:03:06.173Z,92.00
2023-02-14T17:05:35.947Z,92.90
2023-02-14T17:08:05.741Z,93.90
2023-02-14T17:10:33.718Z,94.40
2023-02-14T17:13:03.068Z,95.10
2023-02-14T17:15:31.287Z,95.70
2023-02-14T17:18:07.782Z,96.50
2023-02-14T17:20:35.764Z,97.50
2023-02-14T17:23:03.519Z,97.90
2023-02-14T17:25:30.760Z,98.10
2023-02-14T17:27:57.975Z,98.30
2023-02-14T17:30:25.648Z,99.00
2023-02-14T17:32:53.233Z,99.60
2023-02-14T17:35:20.503Z,99.80
2023-02-14T17:37:47.697Z,99.90
2023-02-14T17:40:15.146Z,99.90
2023-02-14T17:42:42.580Z,99.90
2023-02-14T17:45:11.691Z,99.90
2023-02-14T17:47:40.932Z,99.90
2023-02-14T17:50:08.901Z,99.90
2023-02-14T17:52:35.967Z,99.90
2023-02-14T17:55:03.798Z,99.90
2023-02-14T17:57:30.904Z,99.90
2023-02-14T17:59:58.838Z,99.90
2023-02-14T18:02:26.186Z,99.90
2023-02-14T18:04:53.445Z,99.90
2023-02-14T18:07:20.916Z,99.90
2023-02-14T18:09:47.845Z,99.90
2023-02-14T18:12:15.270Z,99.90
2023-02-14T18:14:42.976Z,99.90
2023-02-14T18:17:13.639Z,99.90
2023-02-14T18:19:40.758Z,99.90
2023-02-14T18:22:07.827Z,99.90
2023-02-14T18:24:35.010Z,99.90
2023-02-14T18:27:02.932Z,99.90
2023-02-14T18:29:31.779Z,99.90
2023-02-14T18:31:59.208Z,99.90
2023-02-14T18:34:26.325Z,99.90
2023-02-14T18:36:53.343Z,99.90
2023-02-14T18:39:20.769Z,99.90
2023-02-14T18:41:47.731Z,99.90
2023-02-14T18:44:14.780Z,99.90
2023-02-14T18:46:43.962Z,99.90
2023-02-14T18:49:13.265Z,99.90
2023-02-14T18:51:43.627Z,99.90
2023-02-14T18:54:10.582Z,99.90
2023-02-14T18:56:38.652Z,99.90
2023-02-14T18:59:09.810Z,99.90
2023-02-14T19:01:42.351Z,99.90
2023-02-14T19:04:12.292Z,99.90
2023-02-14T19:06:41.385Z,99.90
2023-02-14T19:09:15.093Z,99.90
2023-02-14T19:11:42.940Z,99.90
2023-02-14T19:14:10.688Z,99.90
2023-02-14T19:16:50.236Z,99.90
2023-02-14T19:19:18.015Z,99.90
2023-02-14T19:21:45.122Z,99.90
2023-02-14T19:24:12.404Z,99.90
2023-02-14T19:26:40.729Z,99.90
2023-02-14T19:29:14.965Z,99.90
2023-02-14T19:31:48.215Z,99.90
2023-02-14T19:34:27.955Z,99.90
2023-02-14T19:36:59.080Z,99.90
2023-02-14T19:39:31.358Z,99.90
2023-02-14T19:42:00.136Z,99.90
2023-02-14T19:44:29.277Z,99.90
2023-02-14T19:46:56.622Z,99.90
2023-02-14T19:49:24.182Z,99.90
2023-02-14T19:51:51.426Z,99.90
2023-02-14T19:54:19.547Z,99.90
2023-02-14T19:56:47.988Z,99.90
2023-02-14T19:59:20.227Z,99.90
2023-02-14T20:01:51.967Z,99.90
2023-02-14T20:04:25.692Z,99.90
2023-02-14T20:06:53.954Z,99.90
2023-02-14T20:09:22.805Z,99.90
2023-02-14T20:11:55.884Z,99.90
2023-02-14T20:14:49.776Z,99.90
2023-02-14T20:17:19.334Z,99.90
2023-02-14T20:19:46.592Z,99.90
2023-02-14T20:22:13.648Z,99.90
2023-02-14T20:24:40.552Z,99.90
2023-02-14T20:27:08.100Z,99.90
2023-02-14T20:29:35.249Z,99.90
2023-02-14T20:32:04.887Z,99.90
2023-02-14T20:34:32.109Z,99.90
2023-02-14T20:37:00.156Z,99.90
2023-02-14T20:39:34.851Z,99.90
2023-02-14T20:42:02.473Z,99.90
2023-02-14T20:44:29.689Z,99.90
2023-02-14T20:46:57.037Z,99.90
2023-02-14T20:49:27.995Z,99.90
2023-02-14T20:51:56.011Z,99.90
2023-02-14T20:54:27.027Z,99.90
2023-02-14T20:56:54.490Z,99.90
2023-02-14T20:59:29.077Z,99.90
2023-02-14T21:01:59.232Z,99.90
2023-02-14T21:04:27.060Z,99.90
2023-02-14T21:06:54.541Z,99.90
2023-02-14T21:09:21.564Z,99.90
2023-02-14T21:11:49.539Z,99.90
2023-02-14T21:14:17.297Z,99.90
2023-02-14T21:16:44.341Z,99.90
2023-02-14T21:19:11.255Z,99.90
2023-02-14T21:21:38.850Z,99.90
2023-02-14T21:24:11.129Z,99.90
2023-02-14T21:26:39.104Z,99.90
2023-02-14T21:29:07.017Z,99.90
2023-02-14T21:31:35.374Z,99.90
2023-02-14T21:34:04.745Z,99.90
2023-02-14T21:36:37.451Z,99.90
2023-02-14T21:39:06.404Z,99.90
2023-02-14T21:41:35.127Z,99.90
2023-02-14T21:44:03.775Z,99.90
2023-02-14T21:46:36.770Z,99.90
2023-02-14T21:49:24.392Z,99.90
2023-02-14T21:51:51.564Z,99.90
2023-02-14T21:54:18.440Z,99.90
2023-02-14T21:56:45.528Z,99.90
2023-02-14T21:59:13.771Z,99.90
2023-02-14T22:01:42.667Z,99.90
2023-02-14T22:04:12.429Z,99.90
2023-02-14T22:06:41.652Z,99.90
2023-02-14T22:09:09.737Z,99.90
2023-02-14T22:11:37.161Z,99.90
2023-02-14T22:14:04.667Z,99.90
2023-02-14T22:16:32.031Z,99.90
2023-02-14T22:18:59.027Z,99.90
2023-02-14T22:21:27.171Z,99.90
2023-02-14T22:23:55.741Z,99.90
2023-02-14T22:26:26.262Z,99.90
2023-02-14T22:28:59.576Z,99.90
2023-02-14T22:31:32.209Z,99.90
2023-02-14T22:33:59.201Z,99.90
2023-02-14T22:36:26.305Z,99.90
2023-02-14T22:38:53.281Z,99.90
2023-02-14T22:41:23.961Z,99.90
2023-02-14T22:43:53.557Z,99.90
2023-02-14T22:46:27.548Z,99.90
2023-02-14T22:48:56.349Z,99.90
2023-02-14T22:51:30.630Z,99.90
2023-02-14T22:54:03.767Z,99.90
2023-02-14T22:56:38.799Z,99.90
2023-02-14T22:59:23.054Z,99.90
2023-02-14T23:01:52.131Z,99.90
2023-02-14T23:04:22.512Z,99.90
2023-02-14T23:06:50.342Z,99.90
2023-02-14T23:09:18.546Z,99.90
2023-02-14T23:11:47.118Z,99.90
2023-02-14T23:14:35.844Z,99.90
2023-02-14T23:17:22.891Z,99.90
2023-02-14T23:20:08.146Z,99.90
2023-02-14T23:22:40.754Z,99.90
2023-02-14T23:25:11.595Z,99.90
2023-02-14T23:27:43.304Z,99.90
2023-02-14T23:30:17.680Z,99.90
2023-02-14T23:32:45.380Z,99.90
2023-02-14T23:35:12.505Z,99.90
2023-02-14T23:37:39.723Z,99.90
2023-02-14T23:40:07.768Z,99.90
2023-02-14T23:42:34.794Z,99.90
2023-02-14T23:45:21.986Z,99.90
2023-02-14T23:47:48.997Z,99.90
2023-02-14T23:50:16.025Z,99.90
2023-02-14T23:52:44.439Z,99.90
2023-02-14T23:55:11.839Z,99.90
2023-02-14T23:57:38.789Z,99.90
